Time;durP1;ratioP1;P1;durP2;ratioP2;P2;SDS_P1;SDS_P2;PMS_P1;PMS_P2;Temp;Humidity;BMP_temperature;BMP_pressure;BME280_temperature;BME280_humidity;BME280_pressure;Samples;Min_cycle;Max_cycle;Signal;HPM_P1;HPM_P2
2023/05/15 00:08:03;;;;;;;3.28;2.30;;;;;;;;;;20926633;28;20052;-68
2023/05/15 00:18:04;;;;;;;2.47;1.73;;;;;;;;;;20927439;28;20076;-69
2023/05/15 00:28:05;;;;;;;2.90;1.95;;;;;;;;;;20925761;28;20060;-69
2023/05/15 00:38:06;;;;;;;3.13;1.83;;;;;;;;;;20924880;28;20099;-68
2023/05/15 00:48:09;;;;;;;3.40;1.90;;;;;;;;;;20925535;28;20045;-69
2023/05/15 00:58:10;;;;;;;2.78;1.90;;;;;;;;;;20924467;28;20072;-70
2023/05/15 01:08:47;;;;;;;6.63;2.13;;;;;;;;;;20922336;28;20072;-67
2023/05/15 01:18:48;;;;;;;3.33;1.80;;;;;;;;;;20919869;28;20130;-68
2023/05/15 01:28:54;;;;;;;2.95;1.73;;;;;;;;;;20921144;28;20056;-68
2023/05/15 01:39:00;;;;;;;2.17;1.85;;;;;;;;;;20921397;28;20033;-69
2023/05/15 01:49:02;;;;;;;4.43;1.70;;;;;;;;;;20919515;28;20132;-68
2023/05/15 01:59:04;;;;;;;3.17;2.03;;;;;;;;;;20919964;28;20048;-68
2023/05/15 02:09:06;;;;;;;3.13;1.80;;;;;;;;;;20917546;28;20045;-68
2023/05/15 02:19:07;;;;;;;3.13;2.33;;;;;;;;;;20916187;28;20041;-68
2023/05/15 02:29:08;;;;;;;2.45;1.90;;;;;;;;;;20917896;28;20052;-68
2023/05/15 02:39:10;;;;;;;4.45;1.95;;;;;;;;;;20916467;28;20530;-68
2023/05/15 02:49:11;;;;;;;2.13;1.73;;;;;;;;;;20914255;28;20041;-68
2023/05/15 02:59:18;;;;;;;3.15;2.10;;;;;;;;;;20915159;28;20040;-69
2023/05/15 03:09:19;;;;;;;4.38;2.22;;;;;;;;;;20914600;28;20072;-68
2023/05/15 03:19:20;;;;;;;2.97;1.92;;;;;;;;;;20914651;28;20045;-68
2023/05/15 03:29:22;;;;;;;3.08;2.30;;;;;;;;;;20914495;28;20164;-67
2023/05/15 03:39:23;;;;;;;3.40;2.20;;;;;;;;;;20913778;28;20052;-68
2023/05/15 03:49:24;;;;;;;3.95;2.40;;;;;;;;;;20913736;28;20044;-67
2023/05/15 03:59:25;;;;;;;3.30;2.25;;;;;;;;;;20913091;28;20044;-68
2023/05/15 04:09:26;;;;;;;5.38;2.55;;;;;;;;;;20912547;28;20064;-68
2023/05/15 04:19:27;;;;;;;3.60;2.17;;;;;;;;;;20912135;28;20045;-68
2023/05/15 04:29:28;;;;;;;4.05;2.53;;;;;;;;;;20910545;28;20137;-67
2023/05/15 04:39:30;;;;;;;5.35;2.70;;;;;;;;;;20912124;28;20051;-67
2023/05/15 04:49:31;;;;;;;5.22;2.88;;;;;;;;;;20925244;28;20045;-68
2023/05/15 04:59:32;;;;;;;3.15;2.60;;;;;;;;;;20924329;28;20045;-68
2023/05/15 05:09:34;;;;;;;3.83;2.90;;;;;;;;;;20924782;28;20051;-68
2023/05/15 05:19:35;;;;;;;4.28;2.80;;;;;;;;;;20923900;28;20045;-68
2023/05/15 05:29:36;;;;;;;6.15;2.75;;;;;;;;;;20921944;28;20107;-68
2023/05/15 05:39:37;;;;;;;7.40;2.90;;;;;;;;;;20921427;28;20044;-68
2023/05/15 05:49:38;;;;;;;6.50;3.10;;;;;;;;;;20922015;28;20048;-67
2023/05/15 05:59:39;;;;;;;6.78;3.33;;;;;;;;;;20920290;28;20047;-68
2023/05/15 06:09:41;;;;;;;5.97;3.65;;;;;;;;;;20919126;28;20052;-67
2023/05/15 06:19:42;;;;;;;6.07;3.80;;;;;;;;;;20917427;28;20052;-66
2023/05/15 06:29:43;;;;;;;5.78;3.83;;;;;;;;;;20916430;28;20061;-68
2023/05/15 06:39:44;;;;;;;6.32;3.63;;;;;;;;;;20917019;28;20049;-68
2023/05/15 06:49:45;;;;;;;5.82;3.67;;;;;;;;;;20917460;28;20374;-68
2023/05/15 06:59:47;;;;;;;5.15;3.30;;;;;;;;;;20916213;28;20397;-68
2023/05/15 07:09:49;;;;;;;8.30;3.63;;;;;;;;;;20914388;28;20457;-68
2023/05/15 07:19:50;;;;;;;5.20;3.25;;;;;;;;;;20914801;28;20044;-69
2023/05/15 07:29:51;;;;;;;7.13;3.25;;;;;;;;;;20912238;28;20057;-69
2023/05/15 07:39:52;;;;;;;4.85;3.22;;;;;;;;;;20911567;28;20036;-69
2023/05/15 07:49:53;;;;;;;6.72;3.20;;;;;;;;;;20912901;28;20051;-68
2023/05/15 07:59:55;;;;;;;4.78;3.42;;;;;;;;;;20912384;28;20040;-70
2023/05/15 08:09:56;;;;;;;3.83;1.95;;;;;;;;;;20930399;28;20036;-62
2023/05/15 08:19:57;;;;;;;7.05;3.00;;;;;;;;;;20925459;28;20095;-62
2023/05/15 08:29:58;;;;;;;9.10;4.40;;;;;;;;;;20924727;28;20068;-69
2023/05/15 08:39:59;;;;;;;6.40;3.22;;;;;;;;;;20938656;28;20116;-65
2023/05/15 08:50:06;;;;;;;5.80;3.13;;;;;;;;;;20991052;28;20087;-68
2023/05/15 09:00:10;;;;;;;8.68;4.00;;;;;;;;;;21001157;28;20041;-65
2023/05/15 09:10:12;;;;;;;5.40;3.38;;;;;;;;;;20992577;28;20044;-66
2023/05/15 09:20:32;;;;;;;4.55;3.75;;;;;;;;;;20997057;28;20044;-66
2023/05/15 09:30:36;;;;;;;5.47;3.38;;;;;;;;;;21003168;28;20096;-66
2023/05/15 09:40:39;;;;;;;4.72;3.10;;;;;;;;;;21004694;28;20409;-66
2023/05/15 09:50:41;;;;;;;5.97;3.58;;;;;;;;;;21003837;28;20119;-65
2023/05/15 10:00:43;;;;;;;5.57;3.15;;;;;;;;;;21001239;28;20044;-64
2023/05/15 10:10:44;;;;;;;8.27;3.40;;;;;;;;;;21001447;28;20444;-64
2023/05/15 10:20:45;;;;;;;7.93;3.05;;;;;;;;;;21001153;28;20044;-63
2023/05/15 10:30:47;;;;;;;5.45;3.50;;;;;;;;;;21001562;28;20044;-65
2023/05/15 10:40:49;;;;;;;5.38;3.08;;;;;;;;;;20999364;28;20040;-63
2023/05/15 10:50:50;;;;;;;5.95;3.20;;;;;;;;;;20999167;28;20118;-66
2023/05/15 11:00:52;;;;;;;5.32;3.20;;;;;;;;;;20998031;28;20100;-64
2023/05/15 11:10:53;;;;;;;8.15;5.32;;;;;;;;;;20997158;28;20048;-65
2023/05/15 11:20:54;;;;;;;3.15;2.30;;;;;;;;;;20995109;28;20040;-65
2023/05/15 11:30:59;;;;;;;4.93;2.35;;;;;;;;;;20995801;28;20109;-64
2023/05/15 11:41:02;;;;;;;2.60;1.70;;;;;;;;;;20994462;28;20040;-65
2023/05/15 11:51:04;;;;;;;2.17;1.60;;;;;;;;;;20994875;28;20052;-64
2023/05/15 12:01:06;;;;;;;3.67;1.42;;;;;;;;;;20996339;28;20041;-64
2023/05/15 12:11:07;;;;;;;7.20;2.20;;;;;;;;;;20977342;28;20094;-63
2023/05/15 12:21:09;;;;;;;8.43;2.42;;;;;;;;;;20974583;28;20195;-64
2023/05/15 12:31:12;;;;;;;4.35;2.08;;;;;;;;;;20980806;28;20097;-69
2023/05/15 12:41:13;;;;;;;4.72;1.73;;;;;;;;;;20988212;28;20098;-65
2023/05/15 12:51:16;;;;;;;8.45;2.55;;;;;;;;;;20993982;28;20374;-59
2023/05/15 13:01:17;;;;;;;6.18;1.95;;;;;;;;;;20993645;28;20052;-64
2023/05/15 13:11:18;;;;;;;2.17;1.48;;;;;;;;;;21006995;28;20132;-62
2023/05/15 13:21:19;;;;;;;4.05;1.40;;;;;;;;;;21007108;28;20057;-62
2023/05/15 13:31:20;;;;;;;2.63;1.27;;;;;;;;;;21006133;28;20393;-62
2023/05/15 13:41:22;;;;;;;1.67;1.23;;;;;;;;;;21005757;28;20048;-62
2023/05/15 13:51:23;;;;;;;4.53;1.75;;;;;;;;;;21004589;28;20128;-62
2023/05/15 14:01:24;;;;;;;1.95;1.40;;;;;;;;;;21002813;28;20048;-62
2023/05/15 14:11:25;;;;;;;1.75;1.27;;;;;;;;;;21001122;28;20059;-62
2023/05/15 14:21:27;;;;;;;1.50;1.00;;;;;;;;;;21000585;28;20055;-61
2023/05/15 14:31:28;;;;;;;2.67;1.08;;;;;;;;;;20999987;28;20052;-61
2023/05/15 14:41:29;;;;;;;1.27;0.93;;;;;;;;;;21000476;28;20073;-61
2023/05/15 14:51:30;;;;;;;1.35;1.00;;;;;;;;;;21000358;28;20405;-62
2023/05/15 15:01:32;;;;;;;1.52;0.80;;;;;;;;;;20998807;28;20500;-62
2023/05/15 15:11:33;;;;;;;1.35;0.98;;;;;;;;;;20998511;28;20611;-62
2023/05/15 15:21:35;;;;;;;2.38;1.25;;;;;;;;;;20997065;28;20528;-61
2023/05/15 15:31:36;;;;;;;3.45;0.93;;;;;;;;;;20996298;28;20056;-61
2023/05/15 15:41:37;;;;;;;1.83;0.70;;;;;;;;;;20997286;28;20052;-61
2023/05/15 15:51:40;;;;;;;0.82;0.70;;;;;;;;;;20995036;28;20080;-61
2023/05/15 16:01:41;;;;;;;1.05;0.65;;;;;;;;;;20995119;28;20478;-63
2023/05/15 16:11:42;;;;;;;1.60;0.95;;;;;;;;;;20995638;28;20497;-61
2023/05/15 16:21:43;;;;;;;1.20;0.80;;;;;;;;;;20994999;28;20517;-61
2023/05/15 16:31:45;;;;;;;1.77;1.30;;;;;;;;;;20995216;28;20049;-61
2023/05/15 16:41:46;;;;;;;1.50;1.05;;;;;;;;;;21003756;28;20088;-61
2023/05/15 16:51:47;;;;;;;2.78;0.95;;;;;;;;;;21010140;28;20051;-61
2023/05/15 17:01:49;;;;;;;1.45;0.90;;;;;;;;;;21009175;28;20417;-61
2023/05/15 17:11:50;;;;;;;1.38;0.80;;;;;;;;;;21008317;28;20071;-62
2023/05/15 17:21:51;;;;;;;2.10;0.70;;;;;;;;;;21007457;28;20464;-61
2023/05/15 17:31:53;;;;;;;1.38;0.80;;;;;;;;;;21006692;28;20443;-61
2023/05/15 17:41:54;;;;;;;2.05;0.90;;;;;;;;;;21005913;28;20048;-61
2023/05/15 17:51:56;;;;;;;2.35;0.80;;;;;;;;;;21003997;28;20044;-61
2023/05/15 18:01:57;;;;;;;1.50;1.20;;;;;;;;;;21003905;28;20516;-62
2023/05/15 18:11:58;;;;;;;2.00;0.82;;;;;;;;;;21003089;28;20406;-63
2023/05/15 18:22:02;;;;;;;1.58;0.50;;;;;;;;;;21001627;28;20501;-62
2023/05/15 18:32:03;;;;;;;1.45;0.77;;;;;;;;;;21001927;28;20132;-61
2023/05/15 18:42:05;;;;;;;0.95;0.60;;;;;;;;;;20999778;28;20052;-62
2023/05/15 18:52:06;;;;;;;1.25;0.60;;;;;;;;;;20999374;28;20041;-61
2023/05/15 19:02:08;;;;;;;0.55;0.32;;;;;;;;;;20998615;28;20052;-62
2023/05/15 19:12:09;;;;;;;0.93;0.40;;;;;;;;;;20998553;28;20093;-61
2023/05/15 19:22:10;;;;;;;1.30;0.68;;;;;;;;;;20997401;28;20509;-61
2023/05/15 19:32:11;;;;;;;1.95;0.98;;;;;;;;;;20997306;28;20382;-61
2023/05/15 19:42:12;;;;;;;1.00;0.60;;;;;;;;;;20995506;28;20490;-62
2023/05/15 19:52:14;;;;;;;1.65;0.60;;;;;;;;;;20994872;28;20049;-62
2023/05/15 20:02:15;;;;;;;1.23;0.73;;;;;;;;;;20995620;28;20459;-62
2023/05/15 20:12:17;;;;;;;2.40;0.93;;;;;;;;;;20998547;28;20493;-62
2023/05/15 20:22:18;;;;;;;2.00;0.60;;;;;;;;;;21010666;28;20065;-62
2023/05/15 20:32:19;;;;;;;0.77;0.50;;;;;;;;;;21009455;28;20051;-61
2023/05/15 20:42:21;;;;;;;1.40;0.93;;;;;;;;;;21010098;28;20044;-62
2023/05/15 20:52:22;;;;;;;6.38;0.60;;;;;;;;;;21009159;28;20124;-62
2023/05/15 21:02:23;;;;;;;1.05;0.47;;;;;;;;;;21008116;28;20048;-62
2023/05/15 21:12:24;;;;;;;1.42;0.60;;;;;;;;;;21007633;28;20047;-63
2023/05/15 21:22:25;;;;;;;1.13;0.47;;;;;;;;;;21005209;28;20075;-61
2023/05/15 21:32:26;;;;;;;1.17;0.50;;;;;;;;;;21006318;28;20070;-61
2023/05/15 21:42:28;;;;;;;2.65;0.45;;;;;;;;;;21006091;28;20505;-62
2023/05/15 21:52:29;;;;;;;0.40;0.20;;;;;;;;;;21003730;28;20041;-61
2023/05/15 22:02:30;;;;;;;3.08;0.30;;;;;;;;;;21003615;28;20048;-61
2023/05/15 22:12:31;;;;;;;0.85;0.30;;;;;;;;;;21002609;28;20044;-62
2023/05/15 22:22:33;;;;;;;0.85;0.30;;;;;;;;;;21001340;28;20063;-62
2023/05/15 22:32:34;;;;;;;0.63;0.32;;;;;;;;;;21000816;28;20101;-61
2023/05/15 22:42:36;;;;;;;1.35;0.50;;;;;;;;;;20998248;28;20045;-62
2023/05/15 22:52:37;;;;;;;0.82;0.30;;;;;;;;;;20998061;28;20048;-62
2023/05/15 23:02:39;;;;;;;1.30;0.95;;;;;;;;;;20997518;28;20047;-62
2023/05/15 23:12:40;;;;;;;0.85;0.50;;;;;;;;;;20997905;28;20040;-61
2023/05/15 23:22:41;;;;;;;0.85;0.52;;;;;;;;;;20996021;28;20052;-61
2023/05/15 23:32:42;;;;;;;1.65;0.50;;;;;;;;;;20995702;28;20097;-62
2023/05/15 23:42:43;;;;;;;1.25;0.52;;;;;;;;;;20996708;28;20347;-62
2023/05/15 23:52:44;;;;;;;0.95;0.50;;;;;;;;;;20995527;28;20478;-62
